Time;durP1;ratioP1;P1;durP2;ratioP2;P2;SDS_P1;SDS_P2;PMS_P1;PMS_P2;Temp;Humidity;BMP_temperature;BMP_pressure;BME280_temperature;BME280_humidity;BME280_pressure;Samples;Min_cycle;Max_cycle;Signal;HPM_P1;HPM_P2
2022/05/08 00:01:10;;;;;;;25.60;14.28;;;;;;;12.05;70.22;101226.47;1646261;86;26286;-77
2022/05/08 00:03:36;;;;;;;24.12;14.73;;;;;;;12.08;70.14;101219.41;1652918;86;27512;-77
2022/05/08 00:06:07;;;;;;;22.05;15.08;;;;;;;12.10;70.27;101221.40;1650037;86;26489;-77
2022/05/08 00:08:30;;;;;;;27.27;15.88;;;;;;;12.17;70.47;101223.16;1653824;85;25798;-77
2022/05/08 00:10:57;;;;;;;23.10;14.73;;;;;;;12.24;70.50;101220.58;1656641;86;25479;-77
2022/05/08 00:13:23;;;;;;;23.60;13.72;;;;;;;12.27;70.48;101216.20;1659129;86;25944;-77
2022/05/08 00:15:49;;;;;;;25.88;14.25;;;;;;;12.32;70.33;101213.28;1645439;86;27637;-76
2022/05/08 00:18:16;;;;;;;24.57;14.43;;;;;;;12.35;70.62;101211.58;1650248;86;25755;-77
2022/05/08 00:20:42;;;;;;;24.70;14.68;;;;;;;12.36;70.25;101202.98;1664058;86;25901;-77
2022/05/08 00:23:09;;;;;;;25.02;16.55;;;;;;;12.40;70.25;101205.66;1651702;86;25764;-77
2022/05/08 00:25:37;;;;;;;28.17;16.82;;;;;;;12.46;70.32;101195.52;1663417;86;25827;-76
2022/05/08 00:28:04;;;;;;;27.77;16.42;;;;;;;12.51;70.20;101197.12;1663327;86;28367;-77
2022/05/08 00:30:30;;;;;;;23.25;15.10;;;;;;;12.56;70.43;101184.48;1639780;86;25773;-77
2022/05/08 00:32:56;;;;;;;21.48;14.53;;;;;;;12.61;70.46;101184.27;1648002;86;25794;-77
2022/05/08 00:35:22;;;;;;;22.42;14.85;;;;;;;12.65;70.32;101188.25;1660578;85;25861;-77
2022/05/08 00:37:48;;;;;;;23.83;16.05;;;;;;;12.66;70.45;101180.48;1664204;86;25966;-76
2022/05/08 00:40:15;;;;;;;20.45;13.78;;;;;;;12.68;70.48;101184.36;1654630;86;27490;-77
2022/05/08 00:42:42;;;;;;;20.23;14.75;;;;;;;12.67;70.50;101177.30;1649865;86;26739;-77
2022/05/08 00:45:09;;;;;;;27.45;17.25;;;;;;;12.64;70.51;101171.78;1636883;86;26437;-77
2022/05/08 00:47:36;;;;;;;21.75;15.53;;;;;;;12.56;70.85;101172.38;1651868;85;26587;-76
2022/05/08 00:50:06;;;;;;;22.58;15.98;;;;;;;12.48;70.78;101171.98;1654785;86;25883;-77
2022/05/08 00:52:35;;;;;;;23.22;16.17;;;;;;;12.48;71.18;101171.98;1647898;86;28437;-77
2022/05/08 00:55:03;;;;;;;21.10;15.32;;;;;;;12.48;71.33;101180.05;1656218;86;26409;-76
2022/05/08 00:57:30;;;;;;;21.87;15.30;;;;;;;12.51;71.46;101180.19;1652313;86;25897;-76
2022/05/08 01:00:04;;;;;;;26.45;15.88;;;;;;;12.53;71.59;101182.18;1655928;86;26259;-77
2022/05/08 01:02:32;;;;;;;24.02;15.65;;;;;;;12.53;71.53;101180.84;1649623;86;26160;-77
2022/05/08 01:05:00;;;;;;;23.27;15.43;;;;;;;12.54;71.64;101183.33;1653937;86;28140;-76
2022/05/08 01:07:27;;;;;;;26.23;16.32;;;;;;;12.57;71.78;101184.81;1663008;86;25783;-77
2022/05/08 01:09:54;;;;;;;21.00;15.40;;;;;;;12.59;71.88;101180.09;1646239;86;25898;-77
2022/05/08 01:12:23;;;;;;;21.40;15.32;;;;;;;12.62;71.75;101182.38;1652926;86;26676;-77
2022/05/08 01:15:14;;;;;;;23.62;15.88;;;;;;;12.62;71.83;101177.85;1646119;86;25961;-76
2022/05/08 01:17:40;;;;;;;23.75;15.25;;;;;;;12.62;71.78;101173.82;1657958;86;27508;-77
2022/05/08 01:20:08;;;;;;;25.35;15.53;;;;;;;12.64;71.95;101170.97;1647384;86;25853;-77
2022/05/08 01:22:34;;;;;;;22.25;15.53;;;;;;;12.64;71.92;101169.63;1650216;86;25853;-77
2022/05/08 01:25:01;;;;;;;23.50;16.02;;;;;;;12.66;71.93;101166.23;1656644;86;25995;-77
2022/05/08 01:27:27;;;;;;;24.98;14.98;;;;;;;12.66;72.08;101171.08;1658419;86;25755;-77
2022/05/08 01:29:54;;;;;;;28.80;16.77;;;;;;;12.65;72.15;101168.59;1650688;86;27499;-77
2022/05/08 01:32:20;;;;;;;24.50;15.83;;;;;;;12.61;72.33;101174.02;1658646;86;25825;-76
2022/05/08 01:34:46;;;;;;;24.87;15.18;;;;;;;12.61;72.31;101176.70;1648654;86;25972;-77
2022/05/08 01:37:13;;;;;;;24.67;16.32;;;;;;;12.61;72.28;101176.70;1658023;86;25914;-76
2022/05/08 01:39:39;;;;;;;23.80;14.73;;;;;;;12.63;72.44;101178.70;1640476;86;25901;-77
2022/05/08 01:42:06;;;;;;;23.95;15.75;;;;;;;12.65;72.57;101176.66;1669963;84;27671;-77
2022/05/08 01:44:33;;;;;;;28.50;15.72;;;;;;;12.66;72.59;101183.17;1659037;84;25887;-77
2022/05/08 01:49:44;;;;;;;24.60;15.65;;;;;;;12.65;72.60;101177.49;1648228;86;25857;-76
2022/05/08 01:52:10;;;;;;;24.65;16.07;;;;;;;12.65;72.73;101179.34;1657208;86;26429;-77
2022/05/08 01:54:37;;;;;;;23.95;15.20;;;;;;;12.63;72.97;101171.47;1654908;85;28557;-76
2022/05/08 01:57:03;;;;;;;21.48;15.10;;;;;;;12.63;73.17;101181.38;1654473;86;26517;-77
2022/05/08 01:59:30;;;;;;;21.68;14.78;;;;;;;12.53;73.08;101181.64;1659143;86;26471;-77
2022/05/08 02:01:56;;;;;;;25.17;15.60;;;;;;;12.48;73.20;101184.58;1648388;86;26205;-77
2022/05/08 02:04:22;;;;;;;26.60;15.30;;;;;;;12.43;73.28;101178.91;1657386;86;25835;-77
2022/05/08 02:06:50;;;;;;;21.40;13.75;;;;;;;12.41;73.61;101183.13;1648506;86;27548;-76
2022/05/08 02:09:18;;;;;;;20.20;14.13;;;;;;;12.33;73.73;101186.75;1657759;86;25858;-77
2022/05/08 02:11:44;;;;;;;20.70;14.83;;;;;;;12.22;73.77;101186.36;1649244;86;25762;-77
2022/05/08 02:14:10;;;;;;;20.45;14.38;;;;;;;12.13;73.98;101188.28;1658812;86;25921;-77
2022/05/08 02:16:36;;;;;;;24.52;14.98;;;;;;;12.10;74.11;101189.98;1647751;86;26232;-76
2022/05/08 02:19:03;;;;;;;21.10;15.32;;;;;;;12.08;74.21;101181.81;1655613;86;28465;-76
2022/05/08 02:21:29;;;;;;;27.30;15.53;;;;;;;12.09;74.29;101182.95;1660809;86;26011;-77
2022/05/08 02:23:55;;;;;;;27.77;15.25;;;;;;;12.11;74.37;101178.23;1656310;86;26104;-77
2022/05/08 02:26:21;;;;;;;23.40;15.25;;;;;;;12.16;74.43;101187.94;1663885;86;25833;-77
2022/05/08 02:28:48;;;;;;;21.10;14.40;;;;;;;12.20;74.65;101189.73;1655117;86;26331;-77
2022/05/08 02:31:14;;;;;;;23.52;14.87;;;;;;;12.20;74.79;101193.77;1652578;86;27452;-77
2022/05/08 02:33:42;;;;;;;26.52;15.35;;;;;;;12.18;74.68;101186.40;1660928;86;25766;-77
2022/05/08 02:36:10;;;;;;;23.12;15.15;;;;;;;12.16;74.89;101187.94;1658822;86;25331;-76
2022/05/08 02:38:38;;;;;;;23.05;15.98;;;;;;;12.18;74.92;101193.12;1652339;86;26228;-77
2022/05/08 02:41:04;;;;;;;24.12;15.38;;;;;;;12.22;75.13;101191.73;1657793;85;26385;-77
2022/05/08 02:43:30;;;;;;;22.13;15.35;;;;;;;12.24;74.91;101191.03;1639655;86;28688;-77
2022/05/08 02:45:59;;;;;;;25.90;15.63;;;;;;;12.25;75.00;101196.75;1636793;86;25833;-77
2022/05/08 02:48:25;;;;;;;26.57;17.35;;;;;;;12.27;75.03;101202.77;1650176;86;25877;-77
2022/05/08 02:50:51;;;;;;;28.02;20.02;;;;;;;12.30;75.03;101196.52;1663950;86;26065;-76
2022/05/08 02:53:20;;;;;;;27.60;19.10;;;;;;;12.31;75.01;101195.51;1652547;86;25747;-77
2022/05/08 02:58:34;;;;;;;28.50;18.27;;;;;;;12.32;75.17;101196.31;1656094;84;25332;-77
2022/05/08 03:01:06;;;;;;;25.85;18.20;;;;;;;12.32;75.21;101189.10;1636904;87;26031;-77
2022/05/08 03:03:32;;;;;;;34.03;18.73;;;;;;;12.35;75.40;101190.09;1632785;86;25900;-77
2022/05/08 03:05:59;;;;;;;27.52;17.92;;;;;;;12.37;75.49;101192.58;1654804;86;25931;-77
2022/05/08 03:08:25;;;;;;;29.35;19.62;;;;;;;12.39;75.54;101191.39;1651529;86;27630;-76
2022/05/08 03:13:41;;;;;;;30.92;19.12;;;;;;;12.39;75.70;101198.10;1656404;85;25940;-77
2022/05/08 03:16:10;;;;;;;36.42;19.20;;;;;;;12.39;76.09;101192.73;1635533;86;26634;-77
2022/05/08 03:18:40;;;;;;;28.42;18.70;;;;;;;12.40;76.26;101199.75;1636637;87;25997;-77
2022/05/08 03:21:10;;;;;;;27.23;18.37;;;;;;;12.44;76.34;101198.90;1653708;84;27441;-77
2022/05/08 03:23:41;;;;;;;;;;;;;;;12.43;76.59;101196.37;1664540;85;25328;-76
2022/05/08 03:26:08;;;;;;;27.07;19.32;;;;;;;12.43;76.97;101192.34;1636027;86;25823;-77
2022/05/08 03:28:38;;;;;;;35.13;20.65;;;;;;;12.43;76.67;101194.53;1643117;86;25792;-77
2022/05/08 03:31:04;;;;;;;31.27;20.02;;;;;;;12.46;76.89;101200.89;1635439;86;25769;-76
2022/05/08 03:33:34;;;;;;;30.70;20.50;;;;;;;12.44;77.03;101204.27;1640431;86;27012;-77
2022/05/08 03:36:01;;;;;;;27.77;19.92;;;;;;;12.44;76.89;101204.77;1636248;86;26590;-77
2022/05/08 03:38:27;;;;;;;32.73;21.65;;;;;;;12.48;77.08;101202.05;1642925;86;25773;-76
2022/05/08 03:40:55;;;;;;;32.15;19.15;;;;;;;12.50;77.22;101204.03;1652047;85;25840;-77
2022/05/08 03:43:21;;;;;;;30.55;20.60;;;;;;;12.52;77.51;101209.55;1660889;85;25573;-77
2022/05/08 03:45:51;;;;;;;29.48;19.87;;;;;;;12.51;77.37;101213.24;1662086;86;28275;-77
2022/05/08 03:48:20;;;;;;;25.63;18.03;;;;;;;12.47;77.54;101217.85;1663530;86;25809;-77
2022/05/08 03:50:46;;;;;;;23.32;15.70;;;;;;;12.36;77.52;101223.98;1662504;86;25972;-76
2022/05/08 03:53:14;;;;;;;29.15;16.60;;;;;;;12.31;78.26;101230.43;1665900;85;26230;-77
2022/05/08 03:55:40;;;;;;;27.98;16.57;;;;;;;12.20;77.99;101227.34;1636862;87;26536;-77
2022/05/08 03:58:06;;;;;;;25.72;17.05;;;;;;;12.13;78.31;101228.57;1646285;86;28230;-77
2022/05/08 04:00:32;;;;;;;23.30;16.95;;;;;;;12.08;78.53;101238.20;1635391;87;25357;-76
2022/05/08 04:03:00;;;;;;;26.07;17.10;;;;;;;12.08;78.96;101235.52;1659467;85;25780;-77
2022/05/08 04:05:27;;;;;;;25.20;16.82;;;;;;;12.07;79.13;101240.05;1646456;86;25864;-76
2022/05/08 04:07:54;;;;;;;27.58;17.67;;;;;;;12.09;79.28;101232.64;1650675;86;25846;-77
2022/05/08 04:10:20;;;;;;;28.35;16.37;;;;;;;12.16;79.33;101236.28;1664362;86;27521;-77
2022/05/08 04:12:47;;;;;;;21.57;15.58;;;;;;;12.23;79.81;101239.08;1658643;86;26011;-77
2022/05/08 04:18:00;;;;;;;23.57;16.48;;;;;;;12.29;79.97;101241.87;1662108;86;25866;-77
2022/05/08 04:20:26;;;;;;;24.40;16.57;;;;;;;12.31;79.74;101247.89;1663972;85;26066;-77
2022/05/08 04:25:37;;;;;;;26.10;17.50;;;;;;;12.42;79.87;101247.11;1661951;85;26169;-77
2022/05/08 04:28:04;;;;;;;29.23;16.62;;;;;;;12.47;79.99;101247.41;1662206;86;25879;-76
2022/05/08 04:30:30;;;;;;;24.60;15.93;;;;;;;12.52;79.90;101249.86;1663076;85;26242;-77
2022/05/08 04:32:57;;;;;;;20.45;15.93;;;;;;;12.58;80.01;101247.78;1663248;86;25936;-77
2022/05/08 04:35:23;;;;;;;25.48;17.12;;;;;;;12.64;79.86;101244.88;1663411;85;27031;-76
2022/05/08 04:37:49;;;;;;;23.80;15.58;;;;;;;12.68;79.94;101244.30;1655273;85;25815;-77
2022/05/08 04:40:16;;;;;;;26.90;17.52;;;;;;;12.75;79.87;101244.39;1658260;86;26483;-76
2022/05/08 04:42:42;;;;;;;24.95;16.75;;;;;;;12.79;80.15;101245.19;1661670;85;25853;-77
2022/05/08 04:45:09;;;;;;;23.05;16.07;;;;;;;12.83;80.16;101253.20;1654100;85;25961;-77
2022/05/08 04:47:35;;;;;;;25.85;16.23;;;;;;;12.90;80.35;101260.02;1651342;84;27630;-77
2022/05/08 04:50:02;;;;;;;24.37;16.65;;;;;;;12.92;80.59;101260.67;1648839;84;26130;-77
2022/05/08 04:52:28;;;;;;;24.77;16.48;;;;;;;12.96;80.65;101261.45;1644449;84;25842;-76
2022/05/08 04:54:54;;;;;;;25.60;17.07;;;;;;;12.98;80.83;101258.07;1658038;85;26563;-77
2022/05/08 04:57:21;;;;;;;23.07;15.60;;;;;;;13.01;80.66;101256.87;1662259;86;43076;-77
2022/05/08 04:59:47;;;;;;;21.45;14.87;;;;;;;13.03;80.74;101259.70;1651517;86;27464;-77
2022/05/08 05:02:14;;;;;;;20.05;14.38;;;;;;;13.09;81.13;101264.86;1650544;86;25830;-77
2022/05/08 05:04:41;;;;;;;19.77;14.47;;;;;;;13.11;80.91;101264.17;1655007;86;26308;-77
2022/05/08 05:07:08;;;;;;;21.10;14.60;;;;;;;13.15;80.84;101274.37;1658139;86;26513;-77
2022/05/08 05:09:34;;;;;;;21.80;15.85;;;;;;;13.23;81.12;101274.80;1652771;86;25931;-76
2022/05/08 05:12:03;;;;;;;20.35;14.85;;;;;;;13.26;81.41;101281.13;1652378;86;27909;-76
2022/05/08 05:14:32;;;;;;;22.22;14.75;;;;;;;13.28;81.57;101285.00;1621242;87;26542;-77
2022/05/08 05:17:00;;;;;;;22.70;14.75;;;;;;;13.32;81.86;101287.13;1653319;86;25870;-77
2022/05/08 05:19:27;;;;;;;25.55;15.08;;;;;;;13.39;82.13;101285.84;1638107;86;25976;-77
2022/05/08 05:21:53;;;;;;;16.55;13.50;;;;;;;13.41;82.63;101291.36;1625994;87;25482;-77
2022/05/08 05:24:19;;;;;;;19.85;13.32;;;;;;;13.49;83.08;101301.20;1639358;86;28471;-77
2022/05/08 05:26:46;;;;;;;20.75;12.82;;;;;;;13.53;82.94;101303.83;1617065;87;26112;-77
2022/05/08 05:29:12;;;;;;;17.70;13.08;;;;;;;13.58;83.31;101305.45;1658860;86;25782;-77
2022/05/08 05:31:38;;;;;;;21.05;13.22;;;;;;;13.61;83.43;101311.80;1648645;86;26269;-77
2022/05/08 05:34:05;;;;;;;21.17;12.13;;;;;;;13.65;83.32;101315.77;1657317;86;25830;-77
2022/05/08 05:36:31;;;;;;;18.40;12.33;;;;;;;13.70;83.55;101312.01;1662086;86;27467;-77
2022/05/08 05:38:57;;;;;;;17.45;12.13;;;;;;;13.76;84.04;101313.94;1648015;86;26472;-77
2022/05/08 05:41:23;;;;;;;18.92;12.05;;;;;;;13.78;84.00;101312.73;1646605;86;25810;-77
2022/05/08 05:43:49;;;;;;;17.70;10.88;;;;;;;13.82;83.77;101314.02;1662558;85;25816;-76
2022/05/08 05:49:00;;;;;;;12.50;10.45;;;;;;;13.90;83.74;101313.05;1648375;86;28322;-77
2022/05/08 05:51:27;;;;;;;13.68;10.35;;;;;;;13.93;83.59;101309.98;1651421;86;25866;-76
2022/05/08 05:53:53;;;;;;;14.15;10.82;;;;;;;13.98;83.40;101312.11;1655046;86;26535;-77
2022/05/08 05:56:19;;;;;;;13.53;9.73;;;;;;;14.02;83.39;101312.88;1652376;86;25833;-76
2022/05/08 05:58:45;;;;;;;13.65;9.88;;;;;;;14.04;83.16;101316.72;1648646;86;26564;-77
2022/05/08 06:01:11;;;;;;;12.95;8.93;;;;;;;14.07;83.25;101317.70;1647380;86;27473;-77
2022/05/08 06:03:38;;;;;;;13.03;9.30;;;;;;;14.10;83.06;101322.69;1661481;84;25842;-77
2022/05/08 06:06:05;;;;;;;11.73;9.05;;;;;;;14.12;83.19;101321.47;1655091;86;25828;-76
2022/05/08 06:08:31;;;;;;;11.30;8.43;;;;;;;14.15;82.83;101324.30;1661212;85;26103;-77
2022/05/08 06:10:57;;;;;;;12.88;7.78;;;;;;;14.17;82.76;101324.94;1637466;86;25915;-77
2022/05/08 06:13:24;;;;;;;12.93;7.78;;;;;;;14.20;82.14;101336.70;1638290;86;27711;-76
2022/05/08 06:15:50;;;;;;;9.38;6.78;;;;;;;14.21;81.98;101332.95;1637213;86;25940;-76
2022/05/08 06:18:16;;;;;;;7.75;6.08;;;;;;;14.22;81.00;101333.30;1630253;87;25841;-77
2022/05/08 06:20:42;;;;;;;8.95;6.25;;;;;;;14.19;81.02;101335.86;1655619;85;26075;-77
2022/05/08 06:23:08;;;;;;;8.60;6.28;;;;;;;14.21;80.62;101335.66;1631683;86;25896;-77
2022/05/08 06:25:35;;;;;;;7.62;5.65;;;;;;;14.21;80.33;101339.19;1655851;85;27473;-77
2022/05/08 06:28:03;;;;;;;8.23;5.50;;;;;;;14.21;79.55;101338.34;1645551;86;26245;-77
2022/05/08 06:30:29;;;;;;;8.80;6.17;;;;;;;14.20;79.76;101340.73;1661477;84;25890;-77
2022/05/08 06:32:55;;;;;;;8.38;6.20;;;;;;;14.19;80.29;101338.55;1649249;86;26657;-77
2022/05/08 06:35:21;;;;;;;7.20;6.30;;;;;;;14.20;80.59;101334.00;1657512;84;25807;-77
2022/05/08 06:37:48;;;;;;;8.18;5.65;;;;;;;14.19;80.85;101321.03;1653232;84;27446;-77
2022/05/08 06:40:14;;;;;;;7.87;6.10;;;;;;;14.21;81.39;101324.38;1657037;85;25792;-77
2022/05/08 06:42:40;;;;;;;8.23;5.80;;;;;;;14.21;81.51;101331.11;1658349;84;26546;-77
2022/05/08 06:45:08;;;;;;;11.10;7.05;;;;;;;14.17;81.92;101340.60;1653100;84;26006;-77
2022/05/08 06:47:35;;;;;;;8.80;6.33;;;;;;;14.16;82.42;101336.73;1656825;84;25762;-77
2022/05/08 06:50:01;;;;;;;7.45;6.33;;;;;;;14.17;82.63;101342.45;1657749;84;28796;-77
2022/05/08 06:52:27;;;;;;;8.00;6.37;;;;;;;14.17;83.04;101343.30;1666010;84;25779;-77
2022/05/08 06:54:54;;;;;;;8.68;6.50;;;;;;;14.19;82.81;101333.67;1656421;86;25917;-76
2022/05/08 06:57:20;;;;;;;8.10;6.83;;;;;;;14.23;82.47;101332.25;1649474;85;26354;-77
2022/05/08 07:02:31;;;;;;;8.70;6.55;;;;;;;14.32;81.95;101335.17;1640912;86;27566;-77
2022/05/08 07:04:58;;;;;;;8.23;6.08;;;;;;;14.33;81.99;101334.13;1665232;84;25797;-77
2022/05/08 07:07:24;;;;;;;8.60;6.47;;;;;;;14.37;82.11;101340.30;1649066;85;25831;-77
2022/05/08 07:09:51;;;;;;;10.45;7.47;;;;;;;14.42;82.15;101345.95;1652949;85;26647;-77
2022/05/08 07:12:18;;;;;;;9.75;8.15;;;;;;;14.48;82.07;101340.28;1660106;86;25778;-77
2022/05/08 07:14:46;;;;;;;8.35;6.92;;;;;;;14.53;82.19;101345.94;1635202;86;27454;-77
2022/05/08 07:17:14;;;;;;;8.45;6.17;;;;;;;14.57;81.80;101348.56;1659229;86;25788;-77
2022/05/08 07:19:40;;;;;;;9.15;6.67;;;;;;;14.58;81.74;101345.66;1654474;86;25891;-77
2022/05/08 07:22:06;;;;;;;8.58;5.90;;;;;;;14.59;81.76;101333.02;1688900;84;26477;-77
2022/05/08 07:24:33;;;;;;;6.97;6.00;;;;;;;14.57;82.08;101337.27;1664415;86;25846;-77
2022/05/08 07:26:59;;;;;;;10.28;6.78;;;;;;;14.56;81.87;101341.52;1664276;86;27516;-77
2022/05/08 07:29:25;;;;;;;7.50;6.30;;;;;;;14.54;82.12;101340.34;1664826;86;26564;-77
2022/05/08 07:31:53;;;;;;;6.75;5.78;;;;;;;14.60;82.41;101338.75;1663938;86;25885;-77
2022/05/08 07:37:06;;;;;;;9.48;7.70;;;;;;;14.77;82.44;101348.22;1664475;86;25816;-77
2022/05/08 07:39:32;;;;;;;8.15;6.90;;;;;;;14.90;82.35;101350.18;1664519;86;28272;-77
2022/05/08 07:41:59;;;;;;;9.65;7.08;;;;;;;15.01;82.63;101345.59;1664073;86;26124;-77
2022/05/08 07:44:25;;;;;;;9.75;6.58;;;;;;;15.15;82.08;101352.73;1664560;84;25899;-76
2022/05/08 07:46:51;;;;;;;6.78;6.08;;;;;;;15.24;80.97;101355.09;1664401;86;25784;-77
2022/05/08 07:49:17;;;;;;;10.08;6.58;;;;;;;15.34;81.37;101355.55;1664415;85;25955;-77
2022/05/08 07:51:44;;;;;;;8.65;6.83;;;;;;;15.47;80.73;101355.33;1607868;89;27525;-78
2022/05/08 07:54:10;;;;;;;7.05;5.62;;;;;;;15.54;80.26;101353.50;1664404;86;25780;-77
2022/05/08 07:56:36;;;;;;;8.95;6.20;;;;;;;15.62;80.07;101357.38;1607910;89;25827;-77
2022/05/08 07:59:03;;;;;;;8.73;6.60;;;;;;;15.75;80.23;101358.78;1664737;86;25828;-77
2022/05/08 08:01:31;;;;;;;6.80;6.03;;;;;;;15.84;79.88;101354.88;1607912;89;25982;-78
2022/05/08 08:03:57;;;;;;;5.50;4.95;;;;;;;15.91;79.31;101356.55;1658644;85;27479;-77
2022/05/08 08:06:23;;;;;;;6.70;5.53;;;;;;;15.98;78.21;101359.27;1626984;87;25732;-77
2022/05/08 08:08:49;;;;;;;6.60;5.33;;;;;;;16.00;77.56;101363.44;1632275;87;25820;-77
2022/05/08 08:11:16;;;;;;;8.80;5.70;;;;;;;16.10;78.05;101365.77;1606486;89;26265;-76
2022/05/08 08:13:42;;;;;;;6.45;5.50;;;;;;;16.22;78.33;101362.77;1607528;89;25913;-77
2022/05/08 08:16:09;;;;;;;11.73;5.10;;;;;;;16.33;77.47;101355.93;1633842;87;27642;-77
2022/05/08 08:18:37;;;;;;;7.90;5.20;;;;;;;16.41;77.88;101354.38;1633942;87;25857;-78
2022/05/08 08:21:04;;;;;;;6.25;5.65;;;;;;;16.52;77.17;101351.09;1633877;87;25809;-77
2022/05/08 08:23:30;;;;;;;7.37;5.37;;;;;;;16.57;76.24;101350.77;1633580;87;25766;-78
2022/05/08 08:25:56;;;;;;;6.17;5.62;;;;;;;16.62;76.32;101361.81;1633957;87;25888;-79
2022/05/08 08:28:23;;;;;;;7.15;5.80;;;;;;;16.67;76.13;101365.25;1633963;87;27460;-77
2022/05/08 08:30:49;;;;;;;7.10;5.50;;;;;;;16.68;76.09;101362.33;1633493;87;25813;-76
2022/05/08 08:33:15;;;;;;;6.35;5.62;;;;;;;16.69;75.54;101367.22;1633535;87;25758;-78
2022/05/08 08:35:42;;;;;;;7.47;5.47;;;;;;;16.67;75.06;101363.89;1633771;87;26280;-78
2022/05/08 08:38:09;;;;;;;7.25;6.22;;;;;;;16.62;74.95;101361.81;1633948;87;25811;-77
2022/05/08 08:40:39;;;;;;;7.75;6.15;;;;;;;16.62;74.92;101363.16;1633774;87;27466;-77
2022/05/08 08:43:11;;;;;;;9.00;6.08;;;;;;;16.62;75.14;101363.16;1645045;86;25975;-78
2022/05/08 08:48:32;;;;;;;7.47;6.03;;;;;;;16.69;74.81;101365.87;1637301;87;26194;-77
2022/05/08 08:51:01;;;;;;;8.98;6.37;;;;;;;16.73;74.99;101369.31;1652076;86;25931;-78
2022/05/08 08:53:29;;;;;;;7.33;6.10;;;;;;;16.77;74.89;101370.55;1664097;86;28277;-78
2022/05/08 08:55:57;;;;;;;8.83;6.47;;;;;;;16.80;75.14;101368.80;1636524;86;25872;-77
2022/05/08 08:58:23;;;;;;;8.18;5.95;;;;;;;16.89;75.37;101366.71;1663279;86;25753;-77
2022/05/08 09:00:51;;;;;;;11.30;6.28;;;;;;;16.91;74.13;101366.79;1635760;87;26312;-77
2022/05/08 09:03:25;;;;;;;8.50;6.47;;;;;;;16.92;73.89;101377.94;1658041;85;25979;-78
2022/05/08 09:05:56;;;;;;;9.63;6.15;;;;;;;16.95;74.44;101365.87;1636924;86;27564;-77
2022/05/08 09:08:32;;;;;;;9.58;7.20;;;;;;;17.01;74.05;101373.66;1637447;87;25819;-77
2022/05/08 09:11:00;;;;;;;10.38;6.90;;;;;;;17.09;74.41;101371.56;1637269;87;25914;-77
2022/05/08 09:13:29;;;;;;;9.00;6.90;;;;;;;17.14;74.30;101379.90;1637069;87;26021;-77
2022/05/08 09:16:04;;;;;;;8.35;6.75;;;;;;;17.20;74.07;101378.21;1636835;86;25863;-77
2022/05/08 09:18:47;;;;;;;9.53;6.42;;;;;;;17.25;73.95;101377.06;1637361;87;27439;-77
2022/05/08 09:24:14;;;;;;;6.28;4.40;;;;;;;17.32;71.81;101386.02;1636481;86;26578;-77
2022/05/08 09:26:41;;;;;;;7.50;3.27;;;;;;;17.31;70.72;101383.83;1652012;84;25778;-77
2022/05/08 09:29:07;;;;;;;3.00;2.55;;;;;;;17.33;69.76;101379.03;1658676;84;25843;-77
2022/05/08 09:31:41;;;;;;;6.53;2.05;;;;;;;17.35;68.12;101384.22;1664112;86;28411;-78
2022/05/08 09:34:07;;;;;;;3.45;1.92;;;;;;;17.32;67.13;101380.60;1663184;86;25814;-78
2022/05/08 09:36:34;;;;;;;3.40;2.08;;;;;;;17.30;66.49;101387.56;1663460;86;25818;-77
2022/05/08 09:39:03;;;;;;;3.22;2.05;;;;;;;17.31;65.78;101391.11;1663306;86;25792;-77
2022/05/08 09:41:32;;;;;;;4.90;2.17;;;;;;;17.31;65.18;101391.11;1663455;86;25945;-77
2022/05/08 09:44:16;;;;;;;3.30;2.10;;;;;;;17.29;64.64;101389.98;1644003;86;28768;-77
2022/05/08 09:46:45;;;;;;;2.62;2.20;;;;;;;17.29;64.52;101392.69;1625436;87;26009;-77
2022/05/08 09:49:22;;;;;;;5.17;2.55;;;;;;;17.24;64.06;101397.05;1645048;85;26041;-78
2022/05/08 09:51:50;;;;;;;4.05;2.02;;;;;;;17.20;64.07;101395.30;1625891;87;26946;-78
2022/05/08 09:54:18;;;;;;;2.83;1.90;;;;;;;17.21;63.24;101396.13;1637208;86;25855;-77
2022/05/08 09:56:46;;;;;;;4.33;1.62;;;;;;;17.21;63.39;101385.30;1625700;87;27546;-77
2022/05/08 09:59:14;;;;;;;3.30;2.02;;;;;;;17.21;62.28;101378.53;1648077;86;26101;-78
2022/05/08 10:01:42;;;;;;;4.35;2.10;;;;;;;17.23;62.38;101381.86;1655407;85;26431;-77
2022/05/08 10:04:09;;;;;;;4.97;2.33;;;;;;;17.28;60.81;101378.82;1652058;85;26517;-78
2022/05/08 10:06:41;;;;;;;2.30;2.00;;;;;;;17.39;62.04;101384.11;1653047;84;25800;-78
2022/05/08 10:14:41;;;;;;;4.17;2.25;;;;;;;17.60;60.81;101377.09;1652704;85;25847;-77
2022/05/08 10:17:09;;;;;;;2.98;2.20;;;;;;;17.73;60.82;101377.05;1650407;86;25835;-77
2022/05/08 10:19:45;;;;;;;5.12;2.80;;;;;;;17.86;60.77;101367.51;1627186;85;25791;-78
2022/05/08 10:22:14;;;;;;;5.37;2.67;;;;;;;18.01;61.53;101364.52;1654902;81;27787;-77
2022/05/08 10:24:54;;;;;;;4.03;2.40;;;;;;;18.23;61.62;101368.56;1669001;85;25773;-78
2022/05/08 10:27:33;;;;;;;5.83;2.35;;;;;;;18.31;60.43;101369.66;1630986;86;25889;-77
2022/05/08 10:30:05;;;;;;;3.87;2.30;;;;;;;18.37;59.65;101366.91;1637605;87;26288;-77
2022/05/08 10:32:45;;;;;;;5.70;2.55;;;;;;;18.48;60.12;101368.66;1611778;87;25831;-77
2022/05/08 10:35:22;;;;;;;5.00;2.40;;;;;;;18.62;58.94;101366.98;1639358;87;28415;-78
2022/05/08 10:38:08;;;;;;;5.72;2.27;;;;;;;18.74;59.99;101354.34;1611759;88;26494;-78
2022/05/08 10:40:55;;;;;;;3.15;1.95;;;;;;;18.82;58.93;101358.13;1665666;80;26522;31
2022/05/08 10:43:28;;;;;;;3.37;1.90;;;;;;;18.95;57.85;101353.94;1676839;85;26166;-77
2022/05/08 10:45:55;;;;;;;4.05;2.12;;;;;;;19.09;57.57;101356.02;1668450;80;26799;-77
2022/05/08 10:48:26;;;;;;;4.03;2.17;;;;;;;19.18;57.43;101351.41;1631046;87;28249;-77
2022/05/08 10:50:53;;;;;;;4.12;2.27;;;;;;;19.33;56.94;101354.30;1661471;86;25978;-77
2022/05/08 10:53:27;;;;;;;3.65;1.90;;;;;;;19.41;56.65;101355.39;1662319;86;25899;-76
2022/05/08 10:56:06;;;;;;;2.67;1.87;;;;;;;19.52;55.94;101362.27;1627488;88;25910;-77
2022/05/08 10:58:34;;;;;;;6.60;2.20;;;;;;;19.63;54.19;101362.04;1627550;87;26018;-77
2022/05/08 11:01:04;;;;;;;3.83;1.75;;;;;;;19.70;54.24;101353.25;1635429;86;27549;-76
2022/05/08 11:03:30;;;;;;;2.10;1.73;;;;;;;19.78;53.92;101348.33;1691773;80;27062;-77
2022/05/08 11:05:57;;;;;;;3.85;2.50;;;;;;;19.86;54.46;101341.25;1676582;80;26536;-77
2022/05/08 11:08:31;;;;;;;2.17;1.67;;;;;;;19.94;51.89;101350.95;1632230;86;26261;-77
2022/05/08 11:11:04;;;;;;;2.85;2.02;;;;;;;19.94;50.46;101346.36;1629533;86;25804;-76
2022/05/08 11:16:42;;;;;;;3.55;1.90;;;;;;;19.94;52.45;101340.08;1674635;81;26846;-76
2022/05/08 11:19:08;;;;;;;2.70;2.12;;;;;;;20.00;52.05;101337.80;1671239;84;25934;-77
2022/05/08 11:21:35;;;;;;;2.75;2.12;;;;;;;20.09;51.43;101333.70;1671505;84;26566;-77
2022/05/08 11:24:03;;;;;;;6.00;1.98;;;;;;;20.18;51.73;101336.39;1671033;84;26044;-77
2022/05/08 11:26:33;;;;;;;4.65;1.50;;;;;;;20.29;52.29;101336.16;1671191;84;27480;-76
2022/05/08 11:29:00;;;;;;;4.90;1.67;;;;;;;20.37;51.57;101329.86;1671104;84;25923;-76
2022/05/08 11:31:28;;;;;;;3.80;2.05;;;;;;;20.48;48.81;101330.94;1671217;84;25809;-77
2022/05/08 11:36:47;;;;;;;3.25;1.77;;;;;;;20.43;49.46;101326.20;1671217;84;25927;-77
2022/05/08 11:39:18;;;;;;;3.37;1.20;;;;;;;20.25;49.11;101330.89;1670701;84;28322;-77
2022/05/08 11:45:08;;;;;;;2.20;1.45;;;;;;;20.05;49.91;101327.59;1704294;80;26491;-77
2022/05/08 11:47:34;;;;;;;4.15;1.45;;;;;;;20.20;50.52;101323.91;1701259;82;25822;-76
2022/05/08 11:50:06;;;;;;;3.52;1.82;;;;;;;20.32;49.93;101321.55;1700992;82;25757;-78
2022/05/08 11:52:32;;;;;;;5.47;2.45;;;;;;;20.28;49.55;101318.16;1712825;82;27468;-77
2022/05/08 11:55:01;;;;;;;4.08;1.72;;;;;;;20.22;48.83;101317.74;1717921;82;25745;-76
2022/05/08 11:57:28;;;;;;;2.10;1.65;;;;;;;20.16;50.02;101318.13;1728558;82;25862;-78
2022/05/08 12:00:08;;;;;;;4.70;1.90;;;;;;;20.12;49.05;101312.01;1732302;81;26562;-77
2022/05/08 12:02:53;;;;;;;4.25;1.85;;;;;;;20.21;49.85;101311.46;1734957;81;26020;-77